createdAt,value
2018-06-28T00:01:46.037Z,2.32
2018-06-28T00:07:41.069Z,2.4
2018-06-28T00:13:35.995Z,2.32
2018-06-28T00:19:31.026Z,2.66
2018-06-28T00:25:26.089Z,2.27
2018-06-28T00:31:21.031Z,2.33
2018-06-28T00:37:16.072Z,2.01
2018-06-28T00:43:11.034Z,2.37
2018-06-28T00:49:06.038Z,2.54
2018-06-28T00:55:01.099Z,2.35
2018-06-28T01:00:56.119Z,2.2
2018-06-28T01:06:51.101Z,1.97
2018-06-28T01:12:46.092Z,2.02
2018-06-28T01:18:41.062Z,1.93
2018-06-28T01:24:36.081Z,1.98
2018-06-28T01:30:31.247Z,2.07
2018-06-28T01:36:26.091Z,1.81
2018-06-28T01:42:21.134Z,1.82
2018-06-28T01:48:16.097Z,1.68
2018-06-28T01:54:11.083Z,1.78
2018-06-28T02:00:06.608Z,1.88
2018-06-28T02:06:01.134Z,1.8
2018-06-28T02:11:56.119Z,2.1
2018-06-28T02:17:51.122Z,1.92
2018-06-28T02:23:46.151Z,2.14
2018-06-28T02:29:41.144Z,2.03
2018-06-28T02:35:36.201Z,1.93
2018-06-28T02:41:31.108Z,2.22
2018-06-28T02:47:26.196Z,1.91
2018-06-28T02:53:21.102Z,1.65
2018-06-28T02:59:16.189Z,1.57
2018-06-28T03:05:11.368Z,1.85
2018-06-28T03:11:06.223Z,1.8
2018-06-28T03:17:01.207Z,1.69
2018-06-28T03:22:56.187Z,1.48
2018-06-28T03:28:51.201Z,1.74
2018-06-28T03:34:46.179Z,1.83
2018-06-28T03:40:41.147Z,1.68
2018-06-28T03:46:36.219Z,1.72
2018-06-28T03:52:31.262Z,1.73
2018-06-28T03:58:26.169Z,1.66
2018-06-28T04:04:21.220Z,1.4
2018-06-28T04:10:16.174Z,1.87
2018-06-28T04:16:11.267Z,1.67
2018-06-28T04:22:06.236Z,1.7
2018-06-28T04:28:01.198Z,1.82
2018-06-28T04:33:56.195Z,1.99
2018-06-28T04:39:51.211Z,2.01
2018-06-28T04:45:46.179Z,2.34
2018-06-28T04:51:41.215Z,2.01
2018-06-28T04:57:36.283Z,1.96
2018-06-28T05:03:31.265Z,2.01
2018-06-28T05:09:26.276Z,2.32
2018-06-28T05:15:21.337Z,2.19
2018-06-28T05:21:16.302Z,2.63
2018-06-28T05:27:11.254Z,2.56
2018-06-28T05:33:06.284Z,2.6
2018-06-28T05:39:01.239Z,2.81
2018-06-28T05:44:56.231Z,2.76
2018-06-28T05:50:51.250Z,3.28
2018-06-28T05:56:46.300Z,3.61
2018-06-28T06:02:41.323Z,3.51
2018-06-28T06:08:36.250Z,3.36
2018-06-28T06:14:31.268Z,3.55
2018-06-28T06:20:26.393Z,3.78
2018-06-28T06:26:21.285Z,2.62
2018-06-28T06:32:16.265Z,2.66
2018-06-28T06:38:11.286Z,2.75
2018-06-28T06:44:06.280Z,2.55
2018-06-28T06:50:01.345Z,2.41
2018-06-28T06:55:56.319Z,5.72
2018-06-28T07:01:51.383Z,4.62
2018-06-28T07:07:46.380Z,3.24
2018-06-28T07:13:41.312Z,3.19
2018-06-28T07:19:36.323Z,3.32
2018-06-28T07:25:31.345Z,2.24
2018-06-28T07:31:26.359Z,2.86
2018-06-28T07:37:21.364Z,2.24
2018-06-28T07:43:16.388Z,1.9
2018-06-28T07:49:11.487Z,1.62
2018-06-28T07:55:06.315Z,1.79
2018-06-28T08:01:01.461Z,1.68
2018-06-28T08:06:56.403Z,1.46
2018-06-28T08:12:51.359Z,1.1
2018-06-28T08:18:46.425Z,1.13
2018-06-28T08:24:41.325Z,0.96
2018-06-28T08:30:36.355Z,2.52
2018-06-28T08:36:31.410Z,0.82
2018-06-28T08:42:26.357Z,1.11
2018-06-28T08:48:21.462Z,1.25
2018-06-28T08:54:16.401Z,1.42
2018-06-28T09:00:11.845Z,2.33
2018-06-28T09:06:06.411Z,2.21
2018-06-28T09:12:01.395Z,2.37
2018-06-28T09:17:56.392Z,1.63
2018-06-28T09:23:51.433Z,1.67
2018-06-28T09:29:46.412Z,1.58
2018-06-28T09:35:41.441Z,1.22
2018-06-28T09:41:36.411Z,1.32
2018-06-28T09:47:31.460Z,1.14
2018-06-28T09:53:26.485Z,1.27
2018-06-28T09:59:21.424Z,1.08
2018-06-28T10:05:16.561Z,1.2
2018-06-28T10:11:11.476Z,1.01
2018-06-28T10:17:06.452Z,1.83
2018-06-28T10:23:01.459Z,1.85
2018-06-28T10:28:56.484Z,1.6
2018-06-28T10:34:51.462Z,1.98
2018-06-28T10:40:46.572Z,1.49
2018-06-28T10:46:41.490Z,1.2
2018-06-28T10:52:36.570Z,1.39
2018-06-28T10:58:31.468Z,1.28
2018-06-28T11:04:26.524Z,1.19
2018-06-28T11:10:21.521Z,1.37
2018-06-28T11:16:16.513Z,0.94
2018-06-28T11:22:11.532Z,0.96
2018-06-28T11:28:06.491Z,0.99
2018-06-28T11:34:01.612Z,1.16
2018-06-28T11:39:56.538Z,0.93
2018-06-28T11:45:51.556Z,0.81
2018-06-28T11:51:46.553Z,0.85
2018-06-28T11:57:41.600Z,0.96
2018-06-28T12:03:36.546Z,0.63
2018-06-28T12:09:31.566Z,0.79
2018-06-28T12:15:26.653Z,0.85
2018-06-28T12:21:21.579Z,0.63
2018-06-28T12:27:16.562Z,1.07
2018-06-28T12:33:11.619Z,0.73
2018-06-28T12:39:06.737Z,0.61
2018-06-28T12:45:01.699Z,0.84
2018-06-28T12:50:56.641Z,0.92
2018-06-28T12:56:51.606Z,0.69
2018-06-28T13:02:46.690Z,1
2018-06-28T13:08:41.628Z,0.62
2018-06-28T13:14:36.642Z,0.69
2018-06-28T13:20:31.754Z,0.78
2018-06-28T13:26:26.683Z,0.8
2018-06-28T13:32:21.689Z,0.82
2018-06-28T13:38:16.656Z,0.73
2018-06-28T13:44:11.614Z,0.73
2018-06-28T13:50:06.826Z,0.92
2018-06-28T13:56:01.762Z,0.84
2018-06-28T14:02:07.231Z,0.87
2018-06-28T14:07:51.695Z,0.8
2018-06-28T14:13:46.649Z,0.84
2018-06-28T14:19:41.705Z,0.97
2018-06-28T14:25:36.724Z,1.29
2018-06-28T14:31:31.659Z,1.23
2018-06-28T14:37:26.674Z,1.16
2018-06-28T14:43:21.743Z,0.93
2018-06-28T14:49:16.708Z,0.92
2018-06-28T14:55:11.758Z,1.12
2018-06-28T15:01:06.718Z,1.24
2018-06-28T15:07:01.732Z,1.15
2018-06-28T15:12:56.743Z,1.15
2018-06-28T15:18:51.728Z,1.13
2018-06-28T15:24:46.787Z,1.13
2018-06-28T15:30:41.747Z,2.36
2018-06-28T15:36:36.786Z,1.17
2018-06-28T15:42:31.758Z,1.07
2018-06-28T15:48:26.798Z,1.48
2018-06-28T15:54:21.820Z,1.23
2018-06-28T16:00:17.547Z,1.26
2018-06-28T16:06:11.950Z,1.39
2018-06-28T16:12:06.796Z,1.15
2018-06-28T16:18:01.854Z,2.57
2018-06-28T16:23:56.777Z,1.32
2018-06-28T16:29:51.789Z,1.25
2018-06-28T16:35:46.778Z,1.3
2018-06-28T16:41:41.919Z,1.39
2018-06-28T16:47:36.856Z,1.28
2018-06-28T16:53:31.861Z,1.47
2018-06-28T16:59:26.932Z,1.41
2018-06-28T17:05:21.857Z,1.33
2018-06-28T17:11:16.798Z,1.44
2018-06-28T17:17:11.837Z,1.31
2018-06-28T17:23:06.851Z,1.13
2018-06-28T17:29:01.872Z,1.67
2018-06-28T17:34:56.882Z,3.15
2018-06-28T17:40:51.869Z,1.86
2018-06-28T17:46:48.914Z,1.49
2018-06-28T17:52:41.918Z,2.08
2018-06-28T17:58:36.939Z,1.8
2018-06-28T18:04:31.887Z,2.08
2018-06-28T18:10:26.936Z,2.03
2018-06-28T18:16:21.966Z,1.92
2018-06-28T18:22:16.921Z,2.24
2018-06-28T18:28:11.922Z,1.42
2018-06-28T18:34:06.910Z,1.51
2018-06-28T18:40:02.315Z,1.54
2018-06-28T18:45:56.923Z,1.76
2018-06-28T18:51:51.928Z,1.89
2018-06-28T18:57:46.952Z,1.86
2018-06-28T19:03:42.363Z,1.51
2018-06-28T19:09:36.950Z,1.55
2018-06-28T19:15:32.459Z,1.77
2018-06-28T19:21:26.943Z,1.79
2018-06-28T19:27:21.947Z,1.88
2018-06-28T19:33:16.936Z,2.01
2018-06-28T19:39:12.075Z,2.23
2018-06-28T19:45:07.543Z,1.8
2018-06-28T19:51:01.986Z,1.71
2018-06-28T19:56:57.002Z,1.75
2018-06-28T20:02:52.645Z,2.16
2018-06-28T20:08:47.024Z,2.13
2018-06-28T20:14:41.972Z,2.42
2018-06-28T20:20:36.972Z,1.86
2018-06-28T20:26:31.960Z,1.87
2018-06-28T20:32:26.987Z,2.06
2018-06-28T20:38:24.004Z,1.95
2018-06-28T20:44:17.006Z,2.29
2018-06-28T20:50:12.031Z,2.21
2018-06-28T20:56:07.041Z,2.58
2018-06-28T21:02:02.069Z,2.12
2018-06-28T21:07:57.004Z,2.19
2018-06-28T21:13:51.998Z,2.06
2018-06-28T21:19:47.038Z,2.48
2018-06-28T21:25:42.106Z,2.12
2018-06-28T21:31:37.121Z,2.03
2018-06-28T21:37:32.203Z,1.91
2018-06-28T21:43:27.044Z,2.37
2018-06-28T21:49:22.028Z,3.44
2018-06-28T21:55:17.063Z,2.53
2018-06-28T22:01:12.024Z,2.41
2018-06-28T22:07:07.088Z,2.27
2018-06-28T22:13:02.094Z,1.84
2018-06-28T22:18:57.067Z,2.43
2018-06-28T22:24:52.062Z,2.1
2018-06-28T22:30:47.120Z,1.98
2018-06-28T22:36:42.091Z,1.9
2018-06-28T22:42:37.083Z,2.07
2018-06-28T22:48:32.084Z,1.91
2018-06-28T22:54:27.107Z,2.02
2018-06-28T23:00:22.096Z,1.7
2018-06-28T23:06:17.130Z,1.88
2018-06-28T23:12:12.107Z,2.11
2018-06-28T23:18:07.095Z,2.16
2018-06-28T23:24:02.779Z,2.24
2018-06-28T23:30:04.444Z,2.72
2018-06-28T23:35:52.175Z,3.01
2018-06-28T23:41:47.122Z,3.32
2018-06-28T23:47:42.146Z,3.22
2018-06-28T23:53:37.152Z,3.43
2018-06-28T23:59:32.188Z,3.12
